Time;durP1;ratioP1;P1;durP2;ratioP2;P2;SDS_P1;SDS_P2;PMS_P1;PMS_P2;Temp;Humidity;BMP_temperature;BMP_pressure;BME280_temperature;BME280_humidity;BME280_pressure;Samples;Min_cycle;Max_cycle;Signal;HPM_P1;HPM_P2
2023/07/31 00:00:25;;;;;;;;;;;;;;;20.12;64.48;100170.53;4980222;28;7001;-90
2023/07/31 00:02:52;;;;;;;;;;;;;;;20.12;64.59;100167.06;4948500;28;6900;-88
2023/07/31 00:05:25;;;;;;;;;;;;;;;20.12;64.61;100167.94;4964527;28;6951;-89
2023/07/31 00:07:53;;;;;;;;;;;;;;;20.14;64.03;100174.88;4971010;28;7019;-90
2023/07/31 00:10:31;;;;;;;;;;;;;;;20.17;64.39;100165.34;4987342;28;7003;-90
2023/07/31 00:12:57;;;;;;;;;;;;;;;20.14;64.03;100161.88;4949369;28;7549;-92
2023/07/31 00:15:22;;;;;;;;;;;;;;;20.16;64.17;100157.53;4956206;28;7037;-88
2023/07/31 00:17:48;;;;;;;;;;;;;;;20.20;64.16;100165.34;4947876;28;6947;-89
2023/07/31 00:20:19;;;;;;;;;;;;;;;20.19;64.05;100173.19;4947300;28;7481;-90
2023/07/31 00:23:02;;;;;;;;;;;;;;;20.18;64.26;100161.88;4984720;28;6876;-89
2023/07/31 00:25:28;;;;;;;;;;;;;;;20.17;63.72;100154.94;4953424;28;7092;-88
2023/07/31 00:27:54;;;;;;;;;;;;;;;20.17;63.66;100170.56;4951217;28;6839;-90
2023/07/31 00:30:22;;;;;;;;;;;;;;;20.18;63.84;100150.59;4950479;28;7143;-88
2023/07/31 00:32:58;;;;;;;;;;;;;;;20.18;64.13;100150.59;4952821;28;7543;-90
2023/07/31 00:35:29;;;;;;;;;;;;;;;20.19;63.90;100153.22;4967611;28;6938;-89
2023/07/31 00:37:59;;;;;;;;;;;;;;;20.18;63.42;100159.28;4992322;28;6998;-90
2023/07/31 00:40:49;;;;;;;;;;;;;;;20.20;63.27;100154.09;4947928;28;7006;-90
2023/07/31 00:43:25;;;;;;;;;;;;;;;20.20;63.54;100148.91;4966398;28;7012;-88
2023/07/31 00:46:10;;;;;;;;;;;;;;;20.19;63.54;100147.16;4932768;28;7059;-89
2023/07/31 00:52:19;;;;;;;;;;;;;;;20.17;63.06;100143.66;4973632;28;7023;-88
2023/07/31 00:54:55;;;;;;;;;;;;;;;20.14;63.18;100138.44;4951201;28;6992;-88
2023/07/31 00:57:55;;;;;;;;;;;;;;;20.11;62.96;100141.91;4968215;28;7155;-90
2023/07/31 01:00:29;;;;;;;;;;;;;;;20.09;62.87;100138.44;4981761;28;7010;-90
2023/07/31 01:03:23;;;;;;;;;;;;;;;20.06;63.50;100135.81;4954556;28;6814;-90
2023/07/31 01:06:15;;;;;;;;;;;;;;;20.09;63.22;100130.63;4960289;28;7024;-90
2023/07/31 01:08:57;;;;;;;;;;;;;;;20.12;63.48;100144.53;4950627;28;6928;-90
2023/07/31 01:11:39;;;;;;;;;;;;;;;20.11;63.11;100127.19;4982322;28;7256;-86
2023/07/31 01:14:08;;;;;;;;;;;;;;;20.20;62.95;100128.09;4983387;28;6815;-88
2023/07/31 01:16:34;;;;;;;;;;;;;;;20.18;62.92;100124.56;4949333;28;6964;-88
2023/07/31 01:19:01;;;;;;;;;;;;;;;20.21;63.05;100120.25;4982068;28;6962;-89
2023/07/31 01:21:36;;;;;;;;;;;;;;;20.22;62.96;100128.94;4996616;28;6813;-91
2023/07/31 01:24:36;;;;;;;;;;;;;;;20.24;63.44;100128.09;4967283;28;7176;-88
2023/07/31 01:27:14;;;;;;;;;;;;;;;20.23;63.17;100128.09;4962367;28;6922;-89
2023/07/31 01:30:18;;;;;;;;;;;;;;;20.25;63.47;100116.81;4944728;28;7095;-91
2023/07/31 01:32:54;;;;;;;;;;;;;;;20.29;63.63;100122.03;4938161;28;11690;-87
2023/07/31 01:35:28;;;;;;;;;;;;;;;20.35;63.86;100117.72;4955585;28;7024;-87
2023/07/31 01:38:08;;;;;;;;;;;;;;;20.41;63.07;100119.47;4945202;28;6849;-90
2023/07/31 01:40:36;;;;;;;;;;;;;;;20.45;63.59;100118.63;4961521;28;7064;-88
2023/07/31 01:43:02;;;;;;;;;;;;;;;20.48;63.21;100113.41;4942373;28;7024;-87
2023/07/31 01:45:35;;;;;;;;;;;;;;;20.52;63.39;100122.97;4959529;28;7135;-89
2023/07/31 01:48:06;;;;;;;;;;;;;;;20.52;63.25;100109.09;4958136;28;7336;-88
2023/07/31 01:50:32;;;;;;;;;;;;;;;20.60;63.35;100112.59;4957033;28;8194;-88
2023/07/31 01:53:00;;;;;;;;;;;;;;;20.61;63.09;100116.91;4955351;28;7135;-86
2023/07/31 01:55:28;;;;;;;;;;;;;;;20.62;63.19;100105.63;4949377;28;6928;-87
2023/07/31 01:57:56;;;;;;;;;;;;;;;20.71;63.31;100109.13;4935840;28;7003;-86
2023/07/31 02:00:22;;;;;;;;;;;;;;;20.73;62.81;100102.19;4949353;28;7011;-85
2023/07/31 02:02:50;;;;;;;;;;;;;;;20.75;62.94;100111.72;4946511;28;7246;-86
2023/07/31 02:05:18;;;;;;;;;;;;;;;20.75;63.17;100109.13;4962822;28;7423;-86
2023/07/31 02:07:49;;;;;;;;;;;;;;;20.76;62.97;100102.16;4966676;28;7142;-85
2023/07/31 02:10:21;;;;;;;;;;;;;;;20.78;63.15;100092.66;4933863;28;7012;-86
2023/07/31 02:12:56;;;;;;;;;;;;;;;20.79;62.56;100092.63;4952460;28;6835;-85
2023/07/31 02:15:35;;;;;;;;;;;;;;;20.82;62.76;100089.19;4933978;28;7064;-86
2023/07/31 02:18:09;;;;;;;;;;;;;;;20.83;62.65;100080.50;4949360;28;6994;-86
2023/07/31 02:21:04;;;;;;;;;;;;;;;20.89;62.44;100087.47;4950025;28;7179;-87
2023/07/31 02:23:37;;;;;;;;;;;;;;;20.89;62.24;100085.75;4963324;28;7075;-85
2023/07/31 02:26:19;;;;;;;;;;;;;;;20.91;62.42;100083.16;4935521;28;7086;-86
2023/07/31 02:28:47;;;;;;;;;;;;;;;20.93;62.51;100087.47;4937287;28;8354;-85
2023/07/31 02:31:39;;;;;;;;;;;;;;;20.96;62.29;100084.00;4945107;28;7022;-87
2023/07/31 02:34:14;;;;;;;;;;;;;;;20.95;62.63;100084.88;4948865;28;6813;-88
2023/07/31 02:36:39;;;;;;;;;;;;;;;20.97;62.13;100085.72;4933764;28;6992;-88
2023/07/31 02:39:15;;;;;;;;;;;;;;;20.97;62.12;100083.13;4943966;28;7046;-88
2023/07/31 02:41:49;;;;;;;;;;;;;;;20.94;62.38;100076.16;4931701;28;7013;-87
2023/07/31 02:44:23;;;;;;;;;;;;;;;20.93;61.95;100071.84;4947870;28;7222;-87
2023/07/31 02:47:06;;;;;;;;;;;;;;;20.91;62.71;100070.97;4933398;28;6813;-88
2023/07/31 02:49:51;;;;;;;;;;;;;;;20.92;62.28;100071.84;4930172;28;6841;-87
2023/07/31 02:52:20;;;;;;;;;;;;;;;20.93;62.41;100074.44;4934837;28;7325;-87
2023/07/31 02:54:52;;;;;;;;;;;;;;;20.92;62.22;100070.09;4929350;28;6903;-87
2023/07/31 02:57:24;;;;;;;;;;;;;;;20.95;62.53;100070.09;4934236;28;7204;-88
2023/07/31 02:59:53;;;;;;;;;;;;;;;20.97;62.57;100061.44;4931349;28;6843;-87
2023/07/31 03:02:29;;;;;;;;;;;;;;;21.00;62.56;100069.25;4922499;28;7070;-87
2023/07/31 03:05:00;;;;;;;;;;;;;;;21.02;62.13;100072.69;4931463;28;6862;-87
2023/07/31 03:07:37;;;;;;;;;;;;;;;21.00;62.26;100064.88;4930583;28;7013;-87
2023/07/31 03:10:15;;;;;;;;;;;;;;;21.04;62.31;100064.03;4935013;28;7261;-87
2023/07/31 03:12:54;;;;;;;;;;;;;;;21.05;62.46;100057.94;4946366;28;6890;-88
2023/07/31 03:15:26;;;;;;;;;;;;;;;21.06;62.17;100059.69;4946809;28;7164;-87
2023/07/31 03:17:57;;;;;;;;;;;;;;;21.06;62.40;100053.63;4941837;28;8465;-87
2023/07/31 03:20:49;;;;;;;;;;;;;;;21.08;62.33;100044.91;4964614;28;7200;-87
2023/07/31 03:23:25;;;;;;;;;;;;;;;21.10;61.96;100050.13;4941365;28;6994;-88
2023/07/31 03:26:19;;;;;;;;;;;;;;;21.11;61.92;100051.84;4958386;28;7032;-87
2023/07/31 03:28:50;;;;;;;;;;;;;;;21.15;61.86;100056.22;4962215;28;7321;-87
2023/07/31 03:31:33;;;;;;;;;;;;;;;21.15;61.77;100040.59;4960679;28;6856;-87
2023/07/31 03:34:13;;;;;;;;;;;;;;;21.17;61.84;100036.22;4935036;28;6820;-87
2023/07/31 03:36:44;;;;;;;;;;;;;;;21.19;61.67;100044.91;4932090;28;6804;-87
2023/07/31 03:39:10;;;;;;;;;;;;;;;21.16;61.61;100029.28;4947610;28;6984;-80
2023/07/31 03:41:36;;;;;;;;;;;;;;;21.19;61.56;100034.47;4929129;28;6965;-80
2023/07/31 03:44:03;;;;;;;;;;;;;;;21.21;61.69;100030.13;4962994;28;6840;-80
2023/07/31 03:46:29;;;;;;;;;;;;;;;21.21;61.50;100026.66;4947734;28;7339;-82
2023/07/31 03:48:54;;;;;;;;;;;;;;;21.21;61.65;100026.66;4927796;28;7009;-80
2023/07/31 03:51:20;;;;;;;;;;;;;;;21.24;61.50;100026.66;4941293;28;7323;-83
2023/07/31 03:53:45;;;;;;;;;;;;;;;21.24;61.47;100021.44;4953933;28;8231;-80
2023/07/31 03:56:13;;;;;;;;;;;;;;;21.25;61.46;100022.31;4931105;28;8721;-79
2023/07/31 03:58:39;;;;;;;;;;;;;;;21.26;61.43;100016.25;4955986;28;7240;-83
2023/07/31 04:01:04;;;;;;;;;;;;;;;21.29;61.43;100013.63;4957292;28;7366;-80
2023/07/31 04:03:30;;;;;;;;;;;;;;;21.32;61.58;100013.59;4961051;28;6996;-85
2023/07/31 04:05:56;;;;;;;;;;;;;;;21.33;61.21;100012.72;4947404;28;8578;-84
2023/07/31 04:08:22;;;;;;;;;;;;;;;21.31;61.42;100011.88;4957136;28;6936;-82
2023/07/31 04:10:48;;;;;;;;;;;;;;;21.32;61.22;100004.06;4945398;28;8510;-87
2023/07/31 04:13:15;;;;;;;;;;;;;;;21.35;61.22;100005.78;4939930;28;6984;-87
2023/07/31 04:15:40;;;;;;;;;;;;;;;21.37;60.98;100010.09;4932776;28;7166;-85
2023/07/31 04:18:06;;;;;;;;;;;;;;;21.39;60.96;100011.84;4931442;28;6972;-84
2023/07/31 04:20:31;;;;;;;;;;;;;;;21.42;61.30;100011.84;4959201;28;6943;-87
2023/07/31 04:22:57;;;;;;;;;;;;;;;21.43;60.77;100004.00;4929094;28;7147;-86
2023/07/31 04:25:22;;;;;;;;;;;;;;;21.43;60.87;99996.19;4960195;28;7535;-87
2023/07/31 04:27:48;;;;;;;;;;;;;;;21.46;61.09;100001.41;4929771;28;6958;-88
2023/07/31 04:30:13;;;;;;;;;;;;;;;21.46;60.46;99988.38;4926667;28;7050;-85
2023/07/31 04:32:41;;;;;;;;;;;;;;;21.46;60.89;99993.59;4954598;28;6947;-87
2023/07/31 04:35:07;;;;;;;;;;;;;;;21.47;61.02;99982.28;4923195;28;7770;-89
2023/07/31 04:37:32;;;;;;;;;;;;;;;21.49;60.78;99987.50;4925525;28;7783;-82
2023/07/31 04:39:58;;;;;;;;;;;;;;;21.51;60.02;99978.78;4945918;28;7360;-88
2023/07/31 04:42:23;;;;;;;;;;;;;;;21.53;60.65;99981.38;4927790;28;6984;-88
2023/07/31 04:44:49;;;;;;;;;;;;;;;21.54;60.06;99974.44;4946216;28;6974;-85
2023/07/31 04:47:17;;;;;;;;;;;;;;;21.58;60.31;99976.16;4937930;28;7173;-86
2023/07/31 04:49:43;;;;;;;;;;;;;;;21.61;60.58;99979.63;4970994;28;8436;-87
2023/07/31 04:52:09;;;;;;;;;;;;;;;21.60;60.16;99963.97;4950124;28;7679;-88
2023/07/31 04:54:34;;;;;;;;;;;;;;;21.66;59.97;99977.00;4952119;28;7060;-88
2023/07/31 04:57:00;;;;;;;;;;;;;;;21.67;60.38;99972.63;4954648;28;6811;-88
2023/07/31 04:59:26;;;;;;;;;;;;;;;21.67;59.62;99973.53;4969521;28;7205;-87
2023/07/31 05:01:52;;;;;;;;;;;;;;;21.70;59.72;99968.31;4933989;28;7368;-88
2023/07/31 05:04:20;;;;;;;;;;;;;;;21.71;59.46;99964.81;4943810;28;6955;-87
2023/07/31 05:06:46;;;;;;;;;;;;;;;21.73;59.65;99967.44;4933224;28;7196;-83
2023/07/31 05:09:11;;;;;;;;;;;;;;;21.72;60.04;99956.13;4968139;28;6983;-88
2023/07/31 05:11:37;;;;;;;;;;;;;;;21.72;59.59;99955.25;4952305;28;6956;-88
2023/07/31 05:14:02;;;;;;;;;;;;;;;21.73;59.88;99950.06;4934682;28;7043;-88
2023/07/31 05:16:28;;;;;;;;;;;;;;;21.72;59.59;99945.69;4947058;28;7084;-86
2023/07/31 05:18:53;;;;;;;;;;;;;;;21.70;59.17;99937.00;4963268;28;8415;-88
2023/07/31 05:21:19;;;;;;;;;;;;;;;21.66;59.15;99937.88;4948848;28;6977;-87
2023/07/31 05:23:44;;;;;;;;;;;;;;;21.57;59.38;99940.53;4980702;28;6951;-88
2023/07/31 05:26:13;;;;;;;;;;;;;;;21.43;59.46;99931.00;4931311;28;6963;-87
2023/07/31 05:28:39;;;;;;;;;;;;;;;21.30;59.82;99931.94;4953739;28;7166;-87
2023/07/31 05:31:06;;;;;;;;;;;;;;;21.16;60.18;99925.06;4948471;28;7143;-81
2023/07/31 05:33:32;;;;;;;;;;;;;;;21.06;60.54;99939.00;4960573;28;8626;-83
2023/07/31 05:35:58;;;;;;;;;;;;;;;20.98;60.55;99946.81;4946249;28;7165;-81
2023/07/31 05:38:23;;;;;;;;;;;;;;;20.88;61.14;99940.75;4954292;28;8500;-84
2023/07/31 05:40:49;;;;;;;;;;;;;;;20.82;61.20;99940.75;4947167;28;7124;-83
2023/07/31 05:43:14;;;;;;;;;;;;;;;20.76;61.30;99940.72;4950488;28;6976;-84
2023/07/31 05:45:41;;;;;;;;;;;;;;;20.70;61.65;99945.97;4932399;28;8424;-82
2023/07/31 05:48:07;;;;;;;;;;;;;;;20.65;62.04;99952.03;4931841;28;6981;-82
2023/07/31 05:50:32;;;;;;;;;;;;;;;20.62;62.36;99935.56;4947428;28;7024;-83
2023/07/31 05:53:44;;;;;;;;;;;;;;;;;;;;;
2023/07/31 05:56:09;;;;;;;;;;;;;;;20.51;62.76;99944.22;4959626;28;6828;-85
2023/07/31 05:58:57;;;;;;;;;;;;;;;20.49;62.51;99935.53;4968348;28;7145;-87
2023/07/31 06:01:23;;;;;;;;;;;;;;;20.53;63.38;99939.91;4931505;28;7026;-85
2023/07/31 06:03:48;;;;;;;;;;;;;;;20.52;63.58;99921.66;4934440;28;7031;-84
2023/07/31 06:06:14;;;;;;;;;;;;;;;20.54;63.95;99917.31;4960685;28;6832;-85
2023/07/31 06:08:39;;;;;;;;;;;;;;;20.58;63.61;99915.59;4956579;28;6840;-84
2023/07/31 06:11:06;;;;;;;;;;;;;;;20.68;64.04;99918.19;4943220;28;6827;-85
2023/07/31 06:13:31;;;;;;;;;;;;;;;20.78;63.83;99918.19;4930532;28;7090;-84
2023/07/31 06:15:57;;;;;;;;;;;;;;;20.91;63.54;99909.50;4945705;28;7144;-85
2023/07/31 06:18:22;;;;;;;;;;;;;;;21.04;63.32;99910.31;4943291;28;7005;-85
2023/07/31 06:20:53;;;;;;;;;;;;;;;21.16;63.25;99913.75;4928434;28;7178;-85
2023/07/31 06:23:21;;;;;;;;;;;;;;;21.26;63.03;99915.44;4931761;28;6996;-84
2023/07/31 06:25:47;;;;;;;;;;;;;;;21.36;62.97;99905.88;4931560;28;7254;-85
2023/07/31 06:28:12;;;;;;;;;;;;;;;21.46;62.62;99912.78;4932467;28;7017;-85
2023/07/31 06:30:38;;;;;;;;;;;;;;;21.53;62.67;99916.22;4960065;28;6928;-86
2023/07/31 06:33:03;;;;;;;;;;;;;;;21.57;62.35;99909.25;4948905;28;6928;-84
2023/07/31 06:35:29;;;;;;;;;;;;;;;21.58;62.17;99903.16;4947599;28;7014;-85
2023/07/31 06:37:54;;;;;;;;;;;;;;;21.59;62.00;99897.94;4931879;28;6947;-85
2023/07/31 06:40:20;;;;;;;;;;;;;;;21.63;62.01;99909.19;4933157;28;6967;-85
2023/07/31 06:42:45;;;;;;;;;;;;;;;21.62;61.93;99902.25;4927918;28;7032;-84
2023/07/31 06:45:11;;;;;;;;;;;;;;;21.63;61.83;99902.25;4933383;28;6967;-85
2023/07/31 06:47:37;;;;;;;;;;;;;;;21.65;61.84;99897.03;4946494;28;6884;-85
2023/07/31 06:50:02;;;;;;;;;;;;;;;21.68;61.67;99917.03;4961494;28;6976;-84
2023/07/31 06:52:28;;;;;;;;;;;;;;;21.71;61.64;99911.81;4935887;28;6848;-85
2023/07/31 06:55:18;;;;;;;;;;;;;;;21.72;61.52;99909.16;4950815;28;7178;-85
2023/07/31 06:57:43;;;;;;;;;;;;;;;21.67;61.38;99912.66;4932829;28;7007;-84
2023/07/31 07:00:10;;;;;;;;;;;;;;;21.55;61.57;99921.44;4965856;28;6969;-85
2023/07/31 07:02:35;;;;;;;;;;;;;;;21.47;61.76;99921.44;4931410;28;11540;-86
2023/07/31 07:05:01;;;;;;;;;;;;;;;21.34;61.70;99912.81;4949198;28;6821;-84
2023/07/31 07:07:26;;;;;;;;;;;;;;;21.30;62.12;99911.97;4932854;28;6944;-85
2023/07/31 07:09:52;;;;;;;;;;;;;;;21.24;62.25;99901.56;4946806;28;7208;-85
2023/07/31 07:12:18;;;;;;;;;;;;;;;21.21;62.17;99906.81;4935712;28;7205;-87
2023/07/31 07:14:46;;;;;;;;;;;;;;;21.16;62.20;99909.44;4930609;28;6858;-85
2023/07/31 07:17:12;;;;;;;;;;;;;;;21.09;62.74;99902.50;4946623;28;7008;-86
2023/07/31 07:19:40;;;;;;;;;;;;;;;21.00;62.97;99903.38;4959766;28;6780;-86
2023/07/31 07:22:08;;;;;;;;;;;;;;;20.95;62.62;99906.00;4940278;28;7024;-85
2023/07/31 07:24:34;;;;;;;;;;;;;;;20.90;63.02;99906.88;4948644;28;6972;-87
2023/07/31 07:26:59;;;;;;;;;;;;;;;20.86;63.00;99900.84;4944582;28;7229;-86
2023/07/31 07:29:25;;;;;;;;;;;;;;;20.83;63.30;99911.25;4929935;28;6960;-86
2023/07/31 07:31:50;;;;;;;;;;;;;;;20.83;63.27;99906.03;4929968;28;6952;-85
2023/07/31 07:34:19;;;;;;;;;;;;;;;20.84;63.68;99918.19;4945410;28;6905;-85
2023/07/31 07:36:44;;;;;;;;;;;;;;;20.87;63.68;99901.69;4940360;28;6982;-84
2023/07/31 07:39:13;;;;;;;;;;;;;;;20.90;63.69;99909.47;4946388;28;6996;-85
2023/07/31 07:41:38;;;;;;;;;;;;;;;20.91;63.81;99904.28;4929724;28;7061;-85
2023/07/31 07:44:09;;;;;;;;;;;;;;;20.90;63.92;99899.94;4959113;28;6832;-85
2023/07/31 07:46:35;;;;;;;;;;;;;;;20.88;63.72;99887.78;4942882;28;7183;-85
2023/07/31 07:49:01;;;;;;;;;;;;;;;20.92;64.06;99890.38;4927548;28;6972;-84
2023/07/31 07:51:30;;;;;;;;;;;;;;;20.99;64.59;99883.41;4947027;28;6961;-84
2023/07/31 07:53:56;;;;;;;;;;;;;;;21.03;64.51;99877.34;4931017;28;7410;-85
2023/07/31 07:56:25;;;;;;;;;;;;;;;21.07;64.14;99879.03;4943033;28;7223;-84
2023/07/31 07:58:54;;;;;;;;;;;;;;;21.10;64.19;99888.59;4930497;28;7227;-85
2023/07/31 08:01:20;;;;;;;;;;;;;;;21.12;64.32;99881.63;4960063;28;6979;-84
2023/07/31 08:03:49;;;;;;;;;;;;;;;21.19;65.00;99878.13;4930188;28;6824;-85
2023/07/31 08:06:15;;;;;;;;;;;;;;;21.27;64.85;99872.03;4933097;28;7167;-84
2023/07/31 08:08:43;;;;;;;;;;;;;;;21.39;65.01;99860.66;4931769;28;6975;-86
2023/07/31 08:11:20;;;;;;;;;;;;;;;21.54;64.82;99863.19;4934213;28;6996;-87
2023/07/31 08:13:46;;;;;;;;;;;;;;;21.64;64.32;99859.66;4942791;28;7158;-85
2023/07/31 08:16:12;;;;;;;;;;;;;;;21.70;64.12;99858.78;4956075;28;6988;-84
2023/07/31 08:18:42;;;;;;;;;;;;;;;21.75;63.63;99854.41;4955944;28;6807;-88
2023/07/31 08:21:08;;;;;;;;;;;;;;;21.75;63.17;99863.97;4942968;28;6889;-86
2023/07/31 08:23:33;;;;;;;;;;;;;;;21.73;62.98;99871.81;4934441;28;7157;-86
2023/07/31 08:25:59;;;;;;;;;;;;;;;21.65;63.02;99860.53;4939258;28;6992;-85
2023/07/31 08:28:25;;;;;;;;;;;;;;;21.63;62.94;99864.88;4954286;28;7015;-86
2023/07/31 08:30:50;;;;;;;;;;;;;;;21.55;62.94;99871.91;4933753;28;7032;-85
2023/07/31 08:33:16;;;;;;;;;;;;;;;21.47;62.92;99871.91;4952259;28;6838;-85
2023/07/31 08:35:42;;;;;;;;;;;;;;;21.40;63.43;99878.91;4933223;28;6985;-85
2023/07/31 08:38:07;;;;;;;;;;;;;;;21.40;63.52;99870.25;4950776;28;6963;-85
2023/07/31 08:40:37;;;;;;;;;;;;;;;21.39;63.46;99871.09;4937190;28;7177;-84
2023/07/31 08:43:03;;;;;;;;;;;;;;;21.35;63.45;99873.72;4947235;28;7323;-85
2023/07/31 08:45:29;;;;;;;;;;;;;;;21.34;63.69;99873.72;4931190;28;6825;-86
2023/07/31 08:47:57;;;;;;;;;;;;;;;21.31;63.79;99878.94;4944211;28;6999;-84
2023/07/31 08:50:22;;;;;;;;;;;;;;;21.31;64.17;99861.59;4931022;28;6973;-84
2023/07/31 08:52:50;;;;;;;;;;;;;;;21.31;63.98;99863.31;4935275;28;6994;-85
2023/07/31 08:55:15;;;;;;;;;;;;;;;21.31;64.17;99858.09;4933471;28;6987;-84
2023/07/31 08:57:43;;;;;;;;;;;;;;;21.34;64.29;99865.91;4934242;28;6953;-85
2023/07/31 09:00:10;;;;;;;;;;;;;;;21.36;64.61;99859.81;4980173;28;6971;-84
2023/07/31 09:02:49;;;;;;;;;;;;;;;21.45;64.49;99863.25;4965588;28;12129;-85
2023/07/31 09:05:16;;;;;;;;;;;;;;;21.49;64.75;99860.63;4953899;28;7003;-86
2023/07/31 09:07:46;;;;;;;;;;;;;;;21.61;64.96;99861.41;4951346;28;6976;-85
2023/07/31 09:10:12;;;;;;;;;;;;;;;21.70;64.77;99865.75;4933358;28;7261;-85
2023/07/31 09:12:38;;;;;;;;;;;;;;;21.74;64.83;99864.84;4950039;28;6958;-85
2023/07/31 09:15:04;;;;;;;;;;;;;;;21.78;64.36;99862.19;4933415;28;7033;-85
2023/07/31 09:17:34;;;;;;;;;;;;;;;21.82;64.31;99852.63;4931997;28;6889;-86
2023/07/31 09:20:20;;;;;;;;;;;;;;;21.89;64.65;99859.53;4933000;28;7006;-85
2023/07/31 09:22:47;;;;;;;;;;;;;;;21.97;64.18;99859.47;4934080;28;6975;-86
2023/07/31 09:25:22;;;;;;;;;;;;;;;21.99;63.81;99854.25;4953995;28;7044;-84
2023/07/31 09:27:48;;;;;;;;;;;;;;;21.97;63.93;99851.63;4952328;28;7945;-83
2023/07/31 09:30:18;;;;;;;;;;;;;;;21.99;63.86;99855.09;4963040;28;7059;-83
2023/07/31 09:32:45;;;;;;;;;;;;;;;21.96;64.02;99856.84;4950124;28;7222;-85
2023/07/31 09:35:22;;;;;;;;;;;;;;;21.92;63.72;99859.50;4932932;28;7240;-84
2023/07/31 09:37:51;;;;;;;;;;;;;;;21.85;63.69;99856.97;4952305;28;7016;-85
2023/07/31 09:40:34;;;;;;;;;;;;;;;21.76;63.78;99850.94;4932806;28;7288;-84
2023/07/31 09:43:04;;;;;;;;;;;;;;;21.71;63.82;99849.22;4947607;28;7323;-86
2023/07/31 09:45:33;;;;;;;;;;;;;;;21.68;63.79;99846.63;4951313;28;7117;-86
2023/07/31 09:47:59;;;;;;;;;;;;;;;21.64;63.87;99844.00;4949986;28;7019;-84
2023/07/31 09:50:26;;;;;;;;;;;;;;;21.63;64.32;99844.88;4960118;28;7009;-86
2023/07/31 09:52:52;;;;;;;;;;;;;;;21.71;64.65;99844.00;4928518;28;6989;-87
2023/07/31 09:55:18;;;;;;;;;;;;;;;21.76;64.35;99837.88;4930848;28;6955;-85
2023/07/31 09:57:48;;;;;;;;;;;;;;;21.77;64.44;99839.63;4947936;28;6984;-84
2023/07/31 10:00:17;;;;;;;;;;;;;;;21.80;64.30;99840.47;4944199;28;6920;-86
2023/07/31 10:02:46;;;;;;;;;;;;;;;21.78;64.49;99843.09;4933173;28;6979;-85
2023/07/31 10:05:15;;;;;;;;;;;;;;;21.78;64.23;99846.56;4933884;28;6980;-84
2023/07/31 10:07:45;;;;;;;;;;;;;;;21.83;64.25;99843.06;4961081;28;7166;-84
2023/07/31 10:10:11;;;;;;;;;;;;;;;21.87;64.62;99848.22;4933821;28;6999;-87
2023/07/31 10:12:37;;;;;;;;;;;;;;;21.85;64.20;99844.75;4948286;28;6892;-85
2023/07/31 10:15:04;;;;;;;;;;;;;;;21.85;64.35;99842.16;4932003;28;7055;-85
2023/07/31 10:17:31;;;;;;;;;;;;;;;21.87;64.64;99844.75;4929759;28;6869;-85
2023/07/31 10:20:04;;;;;;;;;;;;;;;21.96;64.62;99843.81;4932679;28;7024;-85
2023/07/31 10:22:30;;;;;;;;;;;;;;;22.02;64.53;99836.81;4949481;28;6995;-83
2023/07/31 10:24:58;;;;;;;;;;;;;;;22.02;64.18;99852.47;4930266;28;7176;-84
2023/07/31 10:27:23;;;;;;;;;;;;;;;22.04;64.04;99857.66;4949882;28;6844;-84
2023/07/31 10:29:54;;;;;;;;;;;;;;;22.06;63.93;99850.69;4960189;28;6951;-85
2023/07/31 10:32:21;;;;;;;;;;;;;;;22.12;63.84;99841.97;4950931;28;7080;-85
2023/07/31 10:34:47;;;;;;;;;;;;;;;22.23;63.81;99842.72;4941784;28;6853;-82
2023/07/31 10:37:48;;;;;;;;;;;;;;;22.37;63.41;99841.72;4976253;28;6968;-84
2023/07/31 10:40:20;;;;;;;;;;;;;;;22.45;63.05;99829.47;4928437;28;7161;-85
2023/07/31 10:42:50;;;;;;;;;;;;;;;22.53;63.17;99827.69;4937047;28;7004;-83
2023/07/31 10:45:39;;;;;;;;;;;;;;;22.67;62.80;99822.31;4967857;28;7177;-86
2023/07/31 10:48:07;;;;;;;;;;;;;;;22.78;62.15;99829.16;4947985;28;8130;-86
2023/07/31 10:50:40;;;;;;;;;;;;;;;22.84;62.18;99834.28;4936184;28;6975;-87
2023/07/31 10:53:26;;;;;;;;;;;;;;;22.90;62.70;99826.38;4936662;28;6975;-87
2023/07/31 10:55:59;;;;;;;;;;;;;;;23.07;62.72;99820.94;4945618;28;6838;-87
2023/07/31 10:58:25;;;;;;;;;;;;;;;23.28;62.18;99804.13;4945768;28;7271;-86
2023/07/31 11:00:56;;;;;;;;;;;;;;;23.52;62.34;99806.44;4945059;28;6997;-85
2023/07/31 11:03:25;;;;;;;;;;;;;;;23.64;61.39;99811.47;4931866;28;7050;-85
2023/07/31 11:06:04;;;;;;;;;;;;;;;23.68;60.79;99813.16;4948590;28;6988;-85
2023/07/31 11:08:33;;;;;;;;;;;;;;;23.72;60.46;99809.59;4949212;28;7261;-84
2023/07/31 11:11:02;;;;;;;;;;;;;;;23.71;60.60;99818.31;4963088;28;7089;-84
2023/07/31 11:13:54;;;;;;;;;;;;;;;23.70;59.72;99814.00;4963513;28;7170;-83
2023/07/31 11:16:23;;;;;;;;;;;;;;;23.75;60.33;99815.66;4929980;28;7027;-84
2023/07/31 11:18:51;;;;;;;;;;;;;;;23.81;60.05;99812.94;4948979;28;6987;-84
2023/07/31 11:21:21;;;;;;;;;;;;;;;23.85;59.99;99814.63;4948031;28;7328;-83
2023/07/31 11:23:52;;;;;;;;;;;;;;;23.85;59.51;99814.63;4964984;28;7021;-84
2023/07/31 11:26:18;;;;;;;;;;;;;;;23.70;59.11;99824.44;4949174;28;7008;-84
2023/07/31 11:28:47;;;;;;;;;;;;;;;23.57;59.70;99817.69;4948138;28;7189;-85
2023/07/31 11:31:12;;;;;;;;;;;;;;;23.40;59.66;99812.69;4931805;28;6980;-84
2023/07/31 11:33:38;;;;;;;;;;;;;;;23.23;60.04;99823.34;4963278;28;6955;-84
2023/07/31 11:36:05;;;;;;;;;;;;;;;23.08;60.33;99817.47;4977244;28;7052;-83
2023/07/31 11:38:32;;;;;;;;;;;;;;;23.02;60.69;99807.94;4950594;28;6847;-84
2023/07/31 11:40:59;;;;;;;;;;;;;;;23.03;60.89;99817.53;4947039;28;6808;-84
2023/07/31 11:43:26;;;;;;;;;;;;;;;23.15;61.57;99811.25;4932070;28;7040;-83
2023/07/31 11:45:55;;;;;;;;;;;;;;;23.35;60.75;99806.69;4930773;28;6987;-83
2023/07/31 11:48:27;;;;;;;;;;;;;;;23.37;60.09;99808.41;4952065;28;7166;-85
2023/07/31 11:50:54;;;;;;;;;;;;;;;23.32;60.70;99804.09;4938007;28;7326;-83
2023/07/31 11:53:32;;;;;;;;;;;;;;;23.22;60.30;99808.56;4935566;28;6846;-84
2023/07/31 11:56:02;;;;;;;;;;;;;;;23.08;60.36;99807.00;4971024;28;6836;-86
2023/07/31 11:58:29;;;;;;;;;;;;;;;23.01;61.14;99815.81;4954506;28;7005;-83
2023/07/31 12:00:56;;;;;;;;;;;;;;;22.96;61.13;99812.38;4934824;28;6850;-84
2023/07/31 12:03:22;;;;;;;;;;;;;;;22.85;61.17;99821.22;4933933;28;7019;-78
2023/07/31 12:05:48;;;;;;;;;;;;;;;22.82;61.13;99818.66;4932399;28;8461;-78
2023/07/31 12:08:15;;;;;;;;;;;;;;;22.82;61.70;99805.59;4965033;28;6887;-84
2023/07/31 12:10:40;;;;;;;;;;;;;;;22.93;62.44;99810.66;4921645;28;7056;-84
2023/07/31 12:13:10;;;;;;;;;;;;;;;23.06;62.36;99787.84;4971595;28;7032;-86
2023/07/31 12:15:48;;;;;;;;;;;;;;;23.23;62.65;99779.81;4952707;28;6848;-87
2023/07/31 12:18:16;;;;;;;;;;;;;;;23.37;62.03;99781.38;4940109;28;7011;-86
2023/07/31 12:20:43;;;;;;;;;;;;;;;23.49;61.91;99773.34;4952539;28;6963;-86
2023/07/31 12:23:28;;;;;;;;;;;;;;;23.68;62.50;99776.53;4939169;28;6855;-87
2023/07/31 12:26:06;;;;;;;;;;;;;;;23.83;60.75;99769.31;4954283;28;7074;-84
2023/07/31 12:28:42;;;;;;;;;;;;;;;23.91;60.19;99777.06;4970241;28;6927;-84
2023/07/31 12:31:13;;;;;;;;;;;;;;;23.92;59.82;99784.84;4952430;28;6998;-84
2023/07/31 12:33:40;;;;;;;;;;;;;;;23.89;59.97;99774.44;4952865;28;6986;-84
2023/07/31 12:36:15;;;;;;;;;;;;;;;23.88;59.17;99787.53;4935193;28;7202;-84
2023/07/31 12:38:42;;;;;;;;;;;;;;;23.83;58.72;99782.38;4951689;28;7221;-83
2023/07/31 12:41:08;;;;;;;;;;;;;;;23.78;58.32;99784.22;4933218;28;7002;-87
2023/07/31 12:43:38;;;;;;;;;;;;;;;23.72;58.44;99777.34;4931800;28;7127;-86
2023/07/31 12:46:04;;;;;;;;;;;;;;;23.65;59.13;99771.34;4935748;28;7227;-86
2023/07/31 12:48:30;;;;;;;;;;;;;;;23.66;59.13;99752.16;4936916;28;7315;-87
2023/07/31 12:50:55;;;;;;;;;;;;;;;23.75;59.08;99734.56;4934317;28;6972;-87
2023/07/31 12:53:21;;;;;;;;;;;;;;;23.88;59.35;99728.25;4964078;28;6949;-86
2023/07/31 12:55:46;;;;;;;;;;;;;;;24.03;59.38;99705.28;4935635;28;6827;-88
2023/07/31 12:58:14;;;;;;;;;;;;;;;24.26;59.38;99694.41;4937135;28;6816;-86
2023/07/31 13:00:40;;;;;;;;;;;;;;;24.66;59.60;99700.59;4935925;28;6990;-86
2023/07/31 13:03:05;;;;;;;;;;;;;;;25.03;59.11;99693.69;4964085;28;7437;-87
2023/07/31 13:05:31;;;;;;;;;;;;;;;25.40;58.61;99668.31;4965703;28;8611;-86
2023/07/31 13:07:56;;;;;;;;;;;;;;;25.73;57.43;99661.38;4931396;28;7197;-82
2023/07/31 13:10:23;;;;;;;;;;;;;;;26.05;56.95;99666.66;4963088;28;8691;-81
2023/07/31 13:12:48;;;;;;;;;;;;;;;26.31;55.89;99672.97;4926077;28;8428;-80